Time;durP1;ratioP1;P1;durP2;ratioP2;P2;SDS_P1;SDS_P2;PMS_P1;PMS_P2;Temp;Humidity;BMP_temperature;BMP_pressure;BME280_temperature;BME280_humidity;BME280_pressure;Samples;Min_cycle;Max_cycle;Signal;HPM_P1;HPM_P2
2022/06/08 00:03:59;;;;;;;1.50;0.80;;;;;;;21.11;44.50;101001.91;16146427;19;130103;-55
2022/06/08 00:09:21;;;;;;;1.27;0.80;;;;;;;21.10;44.34;100997.44;16147252;19;129039;-55
2022/06/08 00:14:44;;;;;;;0.90;0.70;;;;;;;21.10;44.49;100994.66;16142762;19;129210;-53
2022/06/08 00:20:07;;;;;;;0.98;0.70;;;;;;;21.09;44.33;100996.59;16145468;19;130714;-55
2022/06/08 00:25:30;;;;;;;1.90;0.98;;;;;;;21.07;44.50;100984.88;16145472;19;129673;-56
2022/06/08 00:30:51;;;;;;;1.27;0.80;;;;;;;21.05;44.24;100970.38;16147494;19;128753;-55
2022/06/08 00:36:13;;;;;;;1.15;0.80;;;;;;;21.06;44.35;100966.50;16144649;19;129693;-55
2022/06/08 00:41:41;;;;;;;2.13;0.88;;;;;;;21.03;44.39;100956.75;16145961;19;128902;-55
2022/06/08 00:47:07;;;;;;;0.88;0.70;;;;;;;21.04;44.57;100947.31;16145240;19;129464;-56
2022/06/08 00:52:30;;;;;;;0.80;0.68;;;;;;;21.03;44.51;100939.25;16142471;19;129374;-53
2022/06/08 00:57:57;;;;;;;1.52;0.85;;;;;;;21.03;44.17;100933.69;16141111;19;130349;-54
2022/06/08 01:03:19;;;;;;;1.63;0.90;;;;;;;21.01;44.24;100930.31;16143342;19;129035;-54
2022/06/08 01:08:49;;;;;;;0.70;0.60;;;;;;;21.01;44.24;100920.00;16144085;19;129404;-55
2022/06/08 01:14:14;;;;;;;0.60;0.55;;;;;;;21.00;44.54;100923.06;16145203;19;129408;-52
2022/06/08 01:19:39;;;;;;;0.60;0.53;;;;;;;20.99;43.99;100911.09;16138603;19;129504;-56
2022/06/08 01:25:01;;;;;;;1.15;0.70;;;;;;;20.98;44.41;100903.88;16141575;19;129252;-54
2022/06/08 01:30:25;;;;;;;0.82;0.55;;;;;;;20.97;44.29;100893.00;16142177;19;129650;-56
2022/06/08 01:35:55;;;;;;;0.80;0.70;;;;;;;20.98;44.41;100880.78;16138832;19;128849;-55
2022/06/08 01:41:44;;;;;;;0.73;0.70;;;;;;;20.98;44.07;100875.22;16141150;19;129468;-55
2022/06/08 01:47:15;;;;;;;1.20;0.50;;;;;;;20.96;44.29;100869.06;16139903;19;129539;-56
2022/06/08 01:52:57;;;;;;;1.58;0.50;;;;;;;20.96;44.46;100852.38;16134172;19;131921;-54
2022/06/08 01:58:22;;;;;;;0.50;0.43;;;;;;;20.94;44.01;100843.47;16134211;19;129103;-55
2022/06/08 02:04:02;;;;;;;0.63;0.43;;;;;;;20.95;44.43;100831.22;16136582;19;129686;-55
2022/06/08 02:09:46;;;;;;;0.68;0.50;;;;;;;20.94;44.03;100821.22;16138307;19;129050;-56
2022/06/08 02:15:18;;;;;;;0.90;0.60;;;;;;;20.93;43.99;100813.97;16138445;19;129335;-54
2022/06/08 02:20:48;;;;;;;0.60;0.50;;;;;;;20.92;43.99;100809.53;16136770;19;129401;-53
2022/06/08 02:26:16;;;;;;;0.73;0.55;;;;;;;20.90;43.81;100804.22;16137254;19;129340;-56
2022/06/08 02:31:45;;;;;;;0.50;0.50;;;;;;;20.90;44.23;100793.09;16137825;19;129362;-51
2022/06/08 02:37:36;;;;;;;0.30;0.30;;;;;;;20.89;43.96;100783.94;16134216;19;130274;-56
2022/06/08 02:43:05;;;;;;;0.47;0.47;;;;;;;20.88;44.13;100782.25;16139112;19;129563;-55
2022/06/08 02:48:27;;;;;;;0.55;0.30;;;;;;;20.87;44.31;100768.59;16135523;19;129290;-52
2022/06/08 02:53:55;;;;;;;0.70;0.60;;;;;;;20.87;44.11;100774.16;16135950;19;129296;-56
2022/06/08 02:59:25;;;;;;;0.65;0.60;;;;;;;20.86;44.04;100758.59;16131910;19;130182;-51
2022/06/08 03:05:00;;;;;;;0.75;0.57;;;;;;;20.85;44.11;100757.75;16136818;19;129474;-52
2022/06/08 03:10:24;;;;;;;1.05;0.40;;;;;;;20.84;43.84;100755.25;16134960;19;129697;-56
2022/06/08 03:15:53;;;;;;;0.65;0.30;;;;;;;20.84;44.35;100750.50;16144506;19;130058;-55
2022/06/08 03:21:15;;;;;;;0.47;0.30;;;;;;;20.84;44.14;100753.28;16149869;19;130552;-55
2022/06/08 03:26:44;;;;;;;0.73;0.40;;;;;;;20.84;43.87;100755.25;16149445;19;129426;-56
2022/06/08 03:32:06;;;;;;;0.68;0.50;;;;;;;20.82;44.36;100747.16;16148243;19;131212;-55
2022/06/08 03:37:28;;;;;;;0.35;0.35;;;;;;;20.82;44.34;100749.09;16145706;19;130168;-54
2022/06/08 03:42:50;;;;;;;0.38;0.30;;;;;;;20.82;44.07;100751.88;16148953;19;129834;-55
2022/06/08 03:48:13;;;;;;;0.20;0.20;;;;;;;20.81;44.10;100739.09;16150022;19;129858;-56
2022/06/08 03:53:41;;;;;;;0.20;0.20;;;;;;;20.81;44.25;100726.00;16142950;19;128919;-55
2022/06/08 03:59:03;;;;;;;0.45;0.40;;;;;;;20.79;44.02;100739.38;16146024;19;130874;-58
2022/06/08 04:04:26;;;;;;;2.25;0.38;;;;;;;20.80;44.06;100734.63;16152247;19;129173;-56
2022/06/08 04:09:48;;;;;;;0.50;0.30;;;;;;;20.78;43.86;100723.78;16144206;19;129352;-56
2022/06/08 04:15:10;;;;;;;0.85;0.50;;;;;;;20.77;44.26;100719.34;16150406;19;129426;-55
2022/06/08 04:20:33;;;;;;;1.17;0.50;;;;;;;20.78;44.12;100711.81;16148804;19;129133;-57
2022/06/08 04:25:55;;;;;;;0.40;0.35;;;;;;;20.77;44.04;100711.00;16148714;19;129518;-56
2022/06/08 04:31:17;;;;;;;0.30;0.30;;;;;;;20.77;44.15;100710.13;16147540;19;129770;-56
2022/06/08 04:36:40;;;;;;;1.00;0.30;;;;;;;20.75;44.10;100707.59;16147567;19;129922;-55
2022/06/08 04:42:03;;;;;;;1.00;0.40;;;;;;;20.75;43.82;100705.69;16148439;19;129400;-56
2022/06/08 04:47:25;;;;;;;0.25;0.20;;;;;;;20.75;44.34;100699.25;16143494;19;130603;-56
2022/06/08 04:52:48;;;;;;;0.30;0.30;;;;;;;20.74;43.76;100687.28;16139626;19;129808;-57
2022/06/08 04:58:10;;;;;;;0.57;0.32;;;;;;;20.75;43.79;100693.69;16146332;19;129763;-57
2022/06/08 05:03:32;;;;;;;0.20;0.20;;;;;;;20.74;44.02;100698.41;16147715;19;129770;-55
2022/06/08 05:08:54;;;;;;;0.38;0.38;;;;;;;20.74;43.79;100689.25;16147335;19;130599;-57
2022/06/08 05:14:15;;;;;;;0.30;0.30;;;;;;;20.73;43.93;100687.56;16144535;19;129599;-55
2022/06/08 05:19:37;;;;;;;0.20;0.20;;;;;;;20.73;44.22;100679.22;16138705;19;130854;-56
2022/06/08 05:25:00;;;;;;;0.50;0.30;;;;;;;20.72;43.90;100683.97;16140928;19;129665;-57
2022/06/08 05:30:25;;;;;;;10.18;0.60;;;;;;;20.71;44.00;100673.94;16146045;19;129751;-56
2022/06/08 05:35:47;;;;;;;6.63;0.47;;;;;;;20.73;43.75;100682.84;16139652;19;129667;-57
2022/06/08 05:41:08;;;;;;;3.42;0.40;;;;;;;20.73;44.14;100680.09;16141455;19;129030;-54
2022/06/08 05:46:30;;;;;;;2.63;0.40;;;;;;;20.75;43.70;100671.47;16139015;19;129150;-55
2022/06/08 05:51:53;;;;;;;4.75;0.73;;;;;;;20.75;43.72;100661.19;16140331;19;129153;-56
2022/06/08 05:57:15;;;;;;;0.85;0.35;;;;;;;20.76;44.10;100662.06;16143750;19;130277;-56
2022/06/08 06:02:36;;;;;;;2.45;0.40;;;;;;;20.78;43.91;100664.56;16138308;19;129162;-56
2022/06/08 06:07:59;;;;;;;3.80;0.45;;;;;;;20.78;43.70;100659.84;16140204;19;129761;-56
2022/06/08 06:13:28;;;;;;;2.42;0.47;;;;;;;20.79;43.71;100650.41;16141827;19;129504;-56
2022/06/08 06:18:51;;;;;;;3.22;0.30;;;;;;;20.81;43.83;100650.94;16136117;19;129584;-56
2022/06/08 06:24:12;;;;;;;1.80;0.38;;;;;;;20.85;43.58;100656.84;16140245;19;128948;-57
2022/06/08 06:29:37;;;;;;;0.47;0.27;;;;;;;20.86;43.76;100651.00;16139800;19;129424;-57
2022/06/08 06:35:00;;;;;;;2.95;0.30;;;;;;;20.89;43.97;100644.03;16140447;19;128834;-57
2022/06/08 06:40:22;;;;;;;1.00;0.20;;;;;;;20.89;43.97;100639.34;16133868;19;129343;-56
2022/06/08 06:45:44;;;;;;;3.33;0.45;;;;;;;20.90;43.54;100646.56;16132622;19;128985;-56
2022/06/08 06:51:07;;;;;;;0.90;0.28;;;;;;;20.92;44.00;100639.91;16163316;19;130374;-56
2022/06/08 06:56:29;;;;;;;0.70;0.40;;;;;;;20.90;43.90;100641.03;16166962;19;129529;-56
2022/06/08 07:01:50;;;;;;;1.85;0.50;;;;;;;20.92;43.61;100637.94;16167357;19;129615;-55
2022/06/08 07:07:12;;;;;;;2.25;0.50;;;;;;;20.93;43.92;100638.78;16169534;19;129299;-56
2022/06/08 07:12:34;;;;;;;2.38;0.50;;;;;;;20.93;43.76;100645.19;16169841;19;131290;-56
2022/06/08 07:17:56;;;;;;;2.92;0.60;;;;;;;20.94;44.07;100640.47;16166308;19;129118;-56
2022/06/08 07:23:18;;;;;;;1.27;0.50;;;;;;;20.92;44.04;100637.94;16163248;19;130034;-56
2022/06/08 07:28:40;;;;;;;1.48;0.65;;;;;;;20.92;44.16;100626.84;16166840;19;129870;-56
2022/06/08 07:34:02;;;;;;;1.67;0.50;;;;;;;20.93;43.88;100638.78;16169211;19;128915;-56
2022/06/08 07:39:24;;;;;;;1.90;0.55;;;;;;;20.90;43.75;100638.25;16164965;19;129087;-56
2022/06/08 07:44:46;;;;;;;1.73;0.70;;;;;;;20.89;44.03;100628.22;16165653;19;129768;-56
2022/06/08 07:50:08;;;;;;;3.65;0.73;;;;;;;20.89;43.82;100632.94;16163191;19;130399;-54
2022/06/08 07:55:31;;;;;;;4.82;0.70;;;;;;;20.88;43.74;100642.38;16160894;19;129788;-56
2022/06/08 08:00:53;;;;;;;1.40;0.80;;;;;;;20.86;43.78;100628.75;16145537;19;130259;-55
2022/06/08 08:06:15;;;;;;;1.60;0.80;;;;;;;20.87;44.00;100635.13;16146789;19;130310;-56
2022/06/08 08:11:37;;;;;;;1.60;0.55;;;;;;;20.87;43.78;100643.47;16146910;19;129476;-55
2022/06/08 08:16:59;;;;;;;2.78;0.70;;;;;;;20.85;44.13;100646.53;16144622;19;129479;-56
2022/06/08 08:22:21;;;;;;;4.28;0.82;;;;;;;20.85;43.93;100651.28;16143815;19;129381;-56
2022/06/08 08:27:44;;;;;;;2.85;0.93;;;;;;;20.84;44.00;100644.03;16145469;19;129460;-56
2022/06/08 08:33:06;;;;;;;6.03;0.80;;;;;;;20.83;44.27;100645.13;16145795;19;129779;-56
2022/06/08 08:38:28;;;;;;;4.90;1.15;;;;;;;20.81;44.37;100637.03;16143604;19;129743;-55
2022/06/08 08:43:50;;;;;;;3.08;0.70;;;;;;;20.80;44.20;100635.38;16147052;19;130998;-56
2022/06/08 08:49:20;;;;;;;3.80;0.93;;;;;;;20.82;44.12;100637.91;16142335;19;132286;-55
2022/06/08 08:54:51;;;;;;;2.92;0.82;;;;;;;20.81;44.57;100639.81;16143642;19;131945;-55
2022/06/08 09:00:37;;;;;;;5.18;0.90;;;;;;;20.81;44.28;100625.94;16139903;19;129608;-56
2022/06/08 09:06:24;;;;;;;6.50;0.90;;;;;;;20.80;44.42;100634.53;16142835;19;129415;-56
2022/06/08 09:11:47;;;;;;;2.35;0.85;;;;;;;20.79;44.39;100632.88;16141242;19;130814;-55
2022/06/08 09:17:41;;;;;;;5.40;0.85;;;;;;;20.80;44.22;100638.16;16142032;19;130395;-55
2022/06/08 09:23:35;;;;;;;10.00;1.17;;;;;;;20.79;44.37;100636.50;16143277;19;129431;-56
2022/06/08 09:29:21;;;;;;;4.68;1.05;;;;;;;20.80;44.60;100634.53;16142803;19;131252;-56
2022/06/08 09:34:53;;;;;;;5.43;1.10;;;;;;;20.79;44.74;100628.16;16142528;19;129579;-57
2022/06/08 09:40:40;;;;;;;3.22;0.80;;;;;;;20.80;44.37;100637.31;16131179;19;130470;-55
2022/06/08 09:51:25;;;;;;;6.25;0.90;;;;;;;20.79;44.43;100619.81;16141385;19;129009;-55
2022/06/08 09:52:26;;;;;;;4.03;0.80;;;;;;;20.79;44.49;100625.38;16135196;19;130635;-56
2022/06/08 09:57:59;;;;;;;6.70;1.13;;;;;;;20.77;44.58;100616.47;16140251;19;129347;-53
2022/06/08 10:03:51;;;;;;;3.70;0.80;;;;;;;20.77;45.28;100613.69;16140447;19;128991;-55
2022/06/08 10:09:33;;;;;;;3.30;0.80;;;;;;;20.77;44.99;100624.81;16135445;19;129417;-56
2022/06/08 10:15:01;;;;;;;7.88;0.95;;;;;;;20.74;45.37;100620.56;16137943;19;129517;-55
2022/06/08 10:20:38;;;;;;;4.38;1.10;;;;;;;20.74;45.56;100614.19;16135540;19;129671;-55
2022/06/08 10:26:04;;;;;;;7.50;1.02;;;;;;;20.71;45.13;100614.72;16135648;19;129381;-55
2022/06/08 10:31:38;;;;;;;8.13;1.15;;;;;;;20.71;45.07;100609.16;16140780;19;129657;-54
2022/06/08 10:37:05;;;;;;;4.40;0.70;;;;;;;20.70;45.12;100608.34;16134937;19;130804;-55
2022/06/08 10:42:40;;;;;;;3.30;1.05;;;;;;;20.71;45.01;100603.59;16138287;19;128956;-56
2022/06/08 10:48:14;;;;;;;7.05;1.40;;;;;;;20.73;45.06;100598.59;16137940;19;129802;-54
2022/06/08 11:00:19;;;;;;;2.38;0.98;;;;;;;20.76;45.12;100600.88;16129980;19;129245;-55
2022/06/08 11:05:45;;;;;;;3.22;0.85;;;;;;;20.76;44.96;100600.88;16136248;19;129546;-55
2022/06/08 11:11:08;;;;;;;6.38;0.82;;;;;;;20.77;45.02;100590.59;16138371;19;129092;-56
2022/06/08 11:16:31;;;;;;;4.22;1.33;;;;;;;20.78;44.96;100589.50;16137715;19;129655;-55
2022/06/08 11:21:58;;;;;;;2.35;0.82;;;;;;;20.77;45.11;100574.78;16132005;19;128973;-56
2022/06/08 11:27:34;;;;;;;3.38;0.80;;;;;;;20.77;45.07;100568.34;16135596;19;129227;-56
2022/06/08 11:32:57;;;;;;;17.70;2.08;;;;;;;20.74;45.51;100558.59;16135020;19;130009;-55
2022/06/08 11:39:02;;;;;;;11.90;1.15;;;;;;;20.74;45.24;100558.59;16146236;19;129450;-55
2022/06/08 11:44:31;;;;;;;7.57;1.33;;;;;;;20.72;45.46;100555.22;16150051;19;128938;-55
2022/06/08 11:49:58;;;;;;;10.82;1.27;;;;;;;20.72;45.07;100552.44;16148166;19;129866;-55
2022/06/08 11:55:23;;;;;;;5.78;1.10;;;;;;;20.71;45.11;100542.44;16146051;19;129566;-52
2022/06/08 12:00:53;;;;;;;5.27;1.73;;;;;;;20.70;45.14;100552.72;16147340;19;129521;-54
2022/06/08 12:06:14;;;;;;;8.27;1.33;;;;;;;20.70;45.13;100546.31;16150731;19;129543;-55
2022/06/08 12:11:40;;;;;;;5.40;0.93;;;;;;;20.71;45.18;100540.50;16149620;19;129244;-55
2022/06/08 12:17:17;;;;;;;6.40;0.85;;;;;;;20.71;45.22;100540.50;16149314;19;129007;-55
2022/06/08 12:22:40;;;;;;;3.28;0.80;;;;;;;20.69;45.63;100541.88;16148252;19;129233;-55
2022/06/08 12:28:08;;;;;;;4.65;0.85;;;;;;;20.69;45.44;100539.09;16148926;19;131330;-53
2022/06/08 12:33:30;;;;;;;5.47;0.80;;;;;;;20.69;45.64;100533.53;16145022;19;129651;-56
2022/06/08 12:39:10;;;;;;;4.75;0.77;;;;;;;20.70;45.25;100544.41;16146086;19;129851;-56
2022/06/08 12:44:34;;;;;;;4.03;0.80;;;;;;;20.68;45.59;100542.97;16146334;19;128981;-55
2022/06/08 12:50:11;;;;;;;3.92;0.90;;;;;;;20.71;45.41;100545.22;16144003;19;129163;-55
2022/06/08 12:55:36;;;;;;;3.10;0.80;;;;;;;20.69;45.50;100547.44;16145348;19;129679;-55
2022/06/08 13:01:03;;;;;;;3.43;0.60;;;;;;;20.71;45.64;100539.66;16143097;19;129557;-55
2022/06/08 13:06:25;;;;;;;4.78;0.70;;;;;;;20.71;45.41;100545.22;16147935;19;129631;-55
2022/06/08 13:11:49;;;;;;;3.35;0.70;;;;;;;20.72;45.46;100556.09;16143127;19;129561;-56
2022/06/08 13:17:12;;;;;;;5.10;0.80;;;;;;;20.73;45.76;100551.34;16146015;19;129389;-54
2022/06/08 13:22:33;;;;;;;3.88;0.70;;;;;;;20.73;45.88;100551.34;16138535;19;129578;-56
2022/06/08 13:27:56;;;;;;;1.67;0.57;;;;;;;20.75;45.36;100560.25;16144238;19;130722;-55
2022/06/08 13:39:16;;;;;;;3.53;0.60;;;;;;;20.75;45.41;100558.34;16143141;19;129096;-55
2022/06/08 13:44:42;;;;;;;2.65;0.50;;;;;;;20.74;45.58;100559.41;16143554;19;129192;-56
2022/06/08 13:50:06;;;;;;;4.45;0.68;;;;;;;20.74;45.66;100559.41;16141768;19;129540;-56
2022/06/08 13:55:31;;;;;;;2.70;0.60;;;;;;;20.74;45.40;100569.72;16143352;19;129367;-55
2022/06/08 14:01:00;;;;;;;1.93;0.47;;;;;;;20.75;45.66;100571.38;16138564;19;130049;-55
2022/06/08 14:18:01;;;;;;;1.52;0.40;;;;;;;20.74;45.70;100570.53;16140392;19;131602;-56
2022/06/08 14:23:25;;;;;;;2.17;0.43;;;;;;;20.75;45.43;100566.69;16138782;19;129987;-55
2022/06/08 14:28:49;;;;;;;2.65;0.68;;;;;;;20.76;45.60;100564.75;16138307;19;128888;-55
2022/06/08 14:34:21;;;;;;;1.00;0.35;;;;;;;20.78;45.65;100556.97;16141037;19;129097;-55
2022/06/08 14:39:44;;;;;;;3.10;0.70;;;;;;;20.77;45.82;100566.44;16138513;19;129491;-55
2022/06/08 14:45:06;;;;;;;1.13;0.40;;;;;;;20.77;45.69;100562.78;16139846;19;129948;-55
2022/06/08 14:50:31;;;;;;;1.23;0.43;;;;;;;20.77;45.44;100558.09;16137080;19;129588;-56
2022/06/08 15:01:35;;;;;;;1.83;0.45;;;;;;;20.75;45.81;100561.13;16136441;19;129603;-56
2022/06/08 15:06:57;;;;;;;2.75;0.65;;;;;;;20.75;45.77;100565.81;16139170;19;129620;-54
2022/06/08 15:12:23;;;;;;;1.50;0.57;;;;;;;20.76;45.54;100564.75;16151777;19;130214;-55
2022/06/08 15:17:47;;;;;;;0.85;0.40;;;;;;;20.75;45.82;100560.25;16153736;19;129084;-54
2022/06/08 15:23:09;;;;;;;1.65;0.55;;;;;;;20.74;45.92;100558.59;16147209;19;129343;-55
2022/06/08 15:28:35;;;;;;;1.85;0.70;;;;;;;20.75;45.62;100565.81;16150062;19;129142;-56
2022/06/08 15:33:56;;;;;;;4.03;0.80;;;;;;;20.75;45.95;100571.38;16151399;19;129145;-56
2022/06/08 15:39:23;;;;;;;4.03;1.00;;;;;;;20.77;46.21;100568.34;16144426;19;131830;-55
2022/06/08 15:44:46;;;;;;;2.13;0.70;;;;;;;20.77;46.18;100574.78;16148848;19;129199;-56
2022/06/08 15:50:11;;;;;;;11.48;2.95;;;;;;;20.79;46.49;100568.94;16144442;19;129174;-56
2022/06/08 15:55:38;;;;;;;16.60;3.60;;;;;;;20.80;46.33;100568.66;16148159;19;129604;-56
2022/06/08 16:01:00;;;;;;;22.08;4.72;;;;;;;20.82;46.40;100566.44;16144082;19;130758;-55
2022/06/08 16:06:23;;;;;;;16.63;4.25;;;;;;;20.84;46.45;100568.97;16147673;19;131764;-54
2022/06/08 16:11:46;;;;;;;21.55;4.53;;;;;;;20.84;46.16;100564.22;16146902;19;128915;-56
2022/06/08 16:17:14;;;;;;;16.15;4.32;;;;;;;20.86;46.21;100563.97;16144783;19;129236;-57
2022/06/08 16:22:37;;;;;;;19.05;4.75;;;;;;;20.87;46.39;100568.41;16140857;19;132089;-56
2022/06/08 16:28:00;;;;;;;18.98;5.13;;;;;;;20.88;46.42;100564.50;16141388;19;129293;-54
2022/06/08 16:33:22;;;;;;;23.00;5.22;;;;;;;20.88;47.44;100562.59;16140237;19;128925;-53
2022/06/08 16:38:45;;;;;;;29.02;6.22;;;;;;;20.90;47.62;100560.38;16147896;19;130127;-56
2022/06/08 16:44:06;;;;;;;24.05;5.00;;;;;;;20.93;48.02;100563.69;16144740;19;129588;-54
2022/06/08 16:49:29;;;;;;;19.88;4.80;;;;;;;20.97;47.54;100562.91;16140656;19;129759;-55
2022/06/08 16:54:51;;;;;;;20.25;4.43;;;;;;;20.99;47.88;100568.19;16136627;19;129287;-52
2022/06/08 17:00:16;;;;;;;18.95;4.25;;;;;;;21.02;47.98;100567.66;16136177;19;130624;-55
2022/06/08 17:05:38;;;;;;;13.60;3.90;;;;;;;21.04;47.90;100571.00;16137480;19;129551;-56
2022/06/08 17:16:42;;;;;;;13.38;3.50;;;;;;;21.10;47.41;100561.56;16137893;19;131050;-56
2022/06/08 17:22:04;;;;;;;14.48;3.45;;;;;;;21.13;47.63;100566.59;16134292;19;129720;-54
2022/06/08 17:27:26;;;;;;;14.32;3.70;;;;;;;21.15;47.55;100569.94;16137284;19;129687;-56
2022/06/08 17:32:48;;;;;;;14.20;3.47;;;;;;;21.17;47.50;100578.00;16133398;19;130283;-56
2022/06/08 17:38:10;;;;;;;18.17;3.55;;;;;;;21.20;47.25;100577.47;16132304;19;130055;-56
2022/06/08 17:43:32;;;;;;;16.17;3.13;;;;;;;21.27;47.14;100571.66;16131084;19;130174;-56
2022/06/08 17:48:54;;;;;;;13.80;2.80;;;;;;;21.25;47.28;100574.69;16136918;19;129473;-56
2022/06/08 17:54:16;;;;;;;12.25;3.05;;;;;;;21.28;47.12;100585.28;16134971;19;129901;-56
2022/06/08 17:59:40;;;;;;;16.02;3.53;;;;;;;21.32;47.07;100586.41;16135839;19;129815;-57
2022/06/08 18:05:02;;;;;;;14.57;2.63;;;;;;;21.33;47.14;100593.66;16134081;19;128924;-57
2022/06/08 18:10:26;;;;;;;11.90;2.38;;;;;;;21.35;47.10;100585.84;16132662;19;130756;-57
2022/06/08 18:15:51;;;;;;;9.30;2.72;;;;;;;21.37;47.16;100588.38;16138684;19;130037;-57
2022/06/08 18:21:13;;;;;;;9.25;2.47;;;;;;;21.40;47.00;100589.75;16134014;19;130127;-56
2022/06/08 18:26:35;;;;;;;7.70;2.05;;;;;;;21.42;47.08;100595.91;16137953;19;128992;-56
2022/06/08 18:31:57;;;;;;;8.70;2.53;;;;;;;21.40;46.94;100596.19;16138035;19;129157;-55
2022/06/08 18:37:20;;;;;;;6.38;2.03;;;;;;;21.38;46.66;100603.97;16136185;19;129688;-56
2022/06/08 18:42:46;;;;;;;9.35;2.22;;;;;;;21.36;46.73;100620.09;16132724;19;129422;-55
2022/06/08 18:48:13;;;;;;;7.50;2.22;;;;;;;21.33;46.73;100626.19;16137890;19;129568;-57
2022/06/08 18:53:35;;;;;;;9.43;1.90;;;;;;;21.30;46.40;100626.72;16130855;19;131338;-55
2022/06/08 18:58:58;;;;;;;5.30;1.38;;;;;;;21.26;46.35;100631.19;16135211;19;128981;-50
2022/06/08 19:04:20;;;;;;;6.30;1.42;;;;;;;21.21;46.46;100641.16;16128656;19;129392;-56
2022/06/08 19:09:43;;;;;;;5.97;1.52;;;;;;;21.18;46.44;100646.44;16133432;19;129117;-56
2022/06/08 19:15:05;;;;;;;7.97;1.48;;;;;;;21.15;46.45;100647.81;16134804;19;129199;-56
2022/06/08 19:20:45;;;;;;;4.70;1.52;;;;;;;21.12;46.44;100651.13;16133195;19;129219;-57
2022/06/08 19:26:10;;;;;;;5.05;1.33;;;;;;;21.08;46.27;100652.78;16124711;19;130769;-56
2022/06/08 19:31:34;;;;;;;6.38;1.40;;;;;;;21.04;46.33;100652.50;16122849;19;129331;-54
2022/06/08 19:36:56;;;;;;;4.85;1.30;;;;;;;21.03;46.33;100658.34;16123172;19;129758;-55
2022/06/08 19:42:18;;;;;;;6.22;1.15;;;;;;;20.99;46.33;100662.75;16128826;19;129537;-51
2022/06/08 19:47:46;;;;;;;12.45;1.48;;;;;;;20.97;46.45;100667.72;16130109;19;130115;-55
2022/06/08 19:53:12;;;;;;;7.45;1.20;;;;;;;20.96;46.66;100679.97;16124669;19;130457;-53
2022/06/08 19:58:35;;;;;;;9.23;1.30;;;;;;;20.94;46.53;100690.50;16144869;19;130954;-56
2022/06/08 20:03:58;;;;;;;8.75;1.85;;;;;;;20.94;46.82;100707.19;16143685;19;129194;-56
2022/06/08 20:09:39;;;;;;;7.88;1.10;;;;;;;20.91;46.76;100716.91;16148243;19;130937;-56
2022/06/08 20:15:01;;;;;;;9.20;1.65;;;;;;;20.89;47.08;100719.97;16147511;19;129319;-56
2022/06/08 20:20:24;;;;;;;10.07;1.30;;;;;;;20.88;47.00;100721.09;16148646;19;129373;-57
2022/06/08 20:25:47;;;;;;;10.90;1.38;;;;;;;20.87;47.48;100736.09;16145894;19;129988;-57
2022/06/08 20:31:11;;;;;;;4.57;1.15;;;;;;;20.86;47.84;100739.97;16139339;19;129800;-58
2022/06/08 20:36:33;;;;;;;6.97;0.98;;;;;;;20.88;47.90;100743.31;16138835;19;129562;-55
2022/06/08 20:41:54;;;;;;;5.30;0.90;;;;;;;20.89;47.54;100755.28;16137654;19;129408;-54
2022/06/08 20:47:17;;;;;;;3.38;0.77;;;;;;;20.87;48.64;100747.22;16135891;19;130552;-56
2022/06/08 20:52:41;;;;;;;7.00;1.20;;;;;;;20.89;48.17;100755.28;16138725;19;130727;-56
2022/06/08 20:58:03;;;;;;;6.00;1.23;;;;;;;20.88;48.22;100759.16;16141139;19;129543;-56
2022/06/08 21:03:40;;;;;;;4.97;0.85;;;;;;;20.89;48.62;100766.41;16135224;19;129335;-56
2022/06/08 21:09:02;;;;;;;5.07;0.82;;;;;;;20.87;48.57;100761.09;16142514;19;129101;-55
2022/06/08 21:14:24;;;;;;;12.57;0.88;;;;;;;20.87;49.33;100769.44;16139589;19;129773;-55
2022/06/08 21:20:08;;;;;;;12.57;1.23;;;;;;;20.85;48.81;100770.84;16141310;19;129459;-53
2022/06/08 21:25:30;;;;;;;8.18;0.80;;;;;;;20.83;48.98;100771.06;16140587;19;131765;-55
2022/06/08 21:30:52;;;;;;;3.83;0.82;;;;;;;20.82;48.91;100771.34;16138439;19;129450;-54
2022/06/08 21:36:14;;;;;;;4.70;0.88;;;;;;;20.80;49.27;100773.56;16138289;19;129848;-54
2022/06/08 21:41:36;;;;;;;4.40;1.02;;;;;;;20.78;49.46;100771.06;16137443;19;129476;-55
2022/06/08 21:47:00;;;;;;;4.32;0.88;;;;;;;20.75;49.12;100763.19;16139933;19;129747;-55
2022/06/08 21:52:22;;;;;;;5.03;0.90;;;;;;;20.74;49.73;100767.09;16134356;19;129417;-56
2022/06/08 21:57:45;;;;;;;3.22;0.60;;;;;;;20.73;49.60;100770.97;16141221;19;131153;-56
2022/06/08 22:03:11;;;;;;;4.03;0.70;;;;;;;20.72;49.60;100769.28;16137344;19;129664;-55
2022/06/08 22:08:35;;;;;;;4.72;1.00;;;;;;;20.70;49.46;100769.56;16134899;19;129078;-54
2022/06/08 22:13:58;;;;;;;7.80;0.85;;;;;;;20.69;49.71;100767.03;16137919;19;129811;-55
2022/06/08 22:19:19;;;;;;;2.47;0.70;;;;;;;20.68;49.85;100770.91;16130997;19;129437;-55
2022/06/08 22:24:46;;;;;;;3.40;0.63;;;;;;;20.68;49.99;100770.91;16134679;19;129550;-53
2022/06/08 22:30:14;;;;;;;2.78;0.60;;;;;;;20.66;49.98;100773.13;16140239;19;129426;-55
2022/06/08 22:35:38;;;;;;;2.67;0.90;;;;;;;20.65;49.65;100782.56;16139525;19;129346;-52
2022/06/08 22:41:03;;;;;;;3.25;0.73;;;;;;;20.65;50.08;100788.13;16136573;19;132405;-54
2022/06/08 22:46:25;;;;;;;3.42;0.68;;;;;;;20.63;50.25;100784.78;16139567;19;130664;-56
2022/06/08 22:51:47;;;;;;;2.13;0.60;;;;;;;20.62;50.20;100788.66;16134433;19;129951;-55
2022/06/08 22:57:09;;;;;;;2.22;0.70;;;;;;;20.60;50.10;100784.19;16132917;19;128938;-52
2022/06/08 23:02:32;;;;;;;2.60;0.50;;;;;;;20.60;49.96;100794.47;16135598;19;129816;-54
2022/06/08 23:07:54;;;;;;;2.22;0.63;;;;;;;20.59;50.25;100796.41;16138489;19;132383;-56
2022/06/08 23:13:16;;;;;;;0.82;0.30;;;;;;;20.57;50.22;100809.72;16137208;19;130731;-55
2022/06/08 23:24:19;;;;;;;4.22;0.50;;;;;;;20.56;50.58;100821.94;16130543;19;129492;-55
2022/06/08 23:29:41;;;;;;;1.38;0.40;;;;;;;20.54;50.43;100818.59;16135244;19;129983;-55
2022/06/08 23:35:03;;;;;;;2.00;0.50;;;;;;;20.53;50.54;100819.72;16146688;19;129424;-55
2022/06/08 23:40:26;;;;;;;2.63;0.52;;;;;;;20.53;50.32;100822.47;16149599;19;129804;-56
2022/06/08 23:45:48;;;;;;;2.20;0.60;;;;;;;20.52;50.54;100826.38;16149788;19;129377;-55
2022/06/08 23:51:12;;;;;;;1.42;0.57;;;;;;;20.51;50.46;100827.47;16145146;19;130926;-56
2022/06/08 23:56:34;;;;;;;3.53;0.75;;;;;;;20.51;50.58;100834.94;16145582;19;128948;-54
